Hunt Field Lander US
ICAO: KLND
IATA: LND
Category: Medium
Scheduled Services: No

Elevation: 5586 ft
TransAlt. 18000 ft.

Airport Communications:
ASOS:118.15
CTAF/UNICOM:122.8

KLND Zoom In..

Runways:

(A) RW 03 length 5007 ft width 100 ft
---- / hdg 36

(B) RW 21 length 5007 ft width 100 ft
---- / hdg 216

Location; KLND
Day. 19 / Time. 19.53 Zulu
* Altimeter: 30.15
* Temperature: 31° c. 87.8°f.
* Wind from: 010° Speed 08 kn.
Dewpoint: 04° c.
Visibility: 10 Statute Miles.
Clouds: Clear (automated report).

KLND 191953Z AUTO 01008KT 10SM CLR 31/04 A3015 RMK AO2 SLP133 T03060044


Wind From 010°
Speed 08 kn.

 
 
jpsmedia.com for Web Design worldairports.se 2018   terms of use